Time;durP1;ratioP1;P1;durP2;ratioP2;P2;SDS_P1;SDS_P2;PMS_P1;PMS_P2;Temp;Humidity;BMP_temperature;BMP_pressure;BME280_temperature;BME280_humidity;BME280_pressure;Samples;Min_cycle;Max_cycle;Signal;HPM_P1;HPM_P2
2021/03/11 00:01:58;;;;;;;19.12;8.55;;;;;;;-6.32;92.87;101952.58;1728632;81;21214;-89
2021/03/11 00:04:26;;;;;;;13.88;7.47;;;;;;;-6.36;93.48;101955.05;1728620;81;21245;-89
2021/03/11 00:06:54;;;;;;;17.82;8.90;;;;;;;-6.37;93.94;101957.57;1728390;81;21211;-89
2021/03/11 00:09:26;;;;;;;19.48;8.50;;;;;;;-6.37;94.53;101957.57;1728709;81;21182;-89
2021/03/11 00:11:56;;;;;;;21.75;9.18;;;;;;;-6.39;94.87;101956.28;1731410;82;21595;-89
2021/03/11 00:14:25;;;;;;;;;;;;;;;-6.39;95.32;101953.75;1739347;81;21154;-89
2021/03/11 00:16:54;;;;;;;12.85;6.15;;;;;;;-6.37;95.55;101956.30;1736681;81;20244;-89
2021/03/11 00:19:22;;;;;;;10.40;5.95;;;;;;;-6.36;95.72;101957.59;1736633;82;21550;-89
2021/03/11 00:21:50;;;;;;;13.80;6.95;;;;;;;-6.35;95.84;101959.72;1736642;82;21119;-89
2021/03/11 00:24:18;;;;;;;9.58;5.42;;;;;;;-6.36;96.05;101953.78;1736685;81;21162;-89
2021/03/11 00:26:47;;;;;;;11.28;5.95;;;;;;;-6.36;96.32;101947.88;1736652;81;21066;-89
2021/03/11 00:29:16;;;;;;;13.22;6.00;;;;;;;-6.35;96.64;101952.95;1736754;81;21193;-89
2021/03/11 00:31:50;;;;;;;10.75;5.87;;;;;;;-6.32;96.84;101957.64;1736608;81;21206;-89
2021/03/11 00:34:20;;;;;;;14.50;7.25;;;;;;;-6.32;97.08;101956.38;1716153;82;21587;-89
2021/03/11 00:36:49;;;;;;;11.63;6.63;;;;;;;-6.32;97.12;101950.88;1736873;81;21194;-89
2021/03/11 00:39:20;;;;;;;14.90;7.65;;;;;;;-6.30;97.21;101952.20;1736887;82;21980;-89
2021/03/11 00:41:48;;;;;;;13.72;7.00;;;;;;;-6.29;97.28;101953.91;1736797;82;21170;-89
2021/03/11 00:44:17;;;;;;;15.38;7.10;;;;;;;-6.29;97.39;101952.21;1736731;81;21337;-89
2021/03/11 00:46:46;;;;;;;11.30;6.97;;;;;;;-6.28;97.28;101941.24;1736711;81;21422;-89
2021/03/11 00:49:14;;;;;;;15.08;8.50;;;;;;;-6.28;96.83;101940.38;1736732;81;21170;-89
2021/03/11 00:51:44;;;;;;;13.65;7.15;;;;;;;-6.32;96.49;101943.27;1736676;81;21151;-89
2021/03/11 00:54:12;;;;;;;16.55;7.83;;;;;;;-6.37;96.46;101947.00;1736772;81;21535;-89
2021/03/11 00:56:41;;;;;;;13.08;7.22;;;;;;;-6.42;96.55;101945.24;1763416;81;21480;-89
2021/03/11 00:59:10;;;;;;;15.03;7.70;;;;;;;-6.48;96.65;101938.78;1767129;79;21186;-89
2021/03/11 01:01:40;;;;;;;14.40;6.92;;;;;;;-6.51;96.76;101939.59;1750708;81;21186;-89
2021/03/11 01:04:09;;;;;;;12.77;7.43;;;;;;;-6.52;96.98;101940.41;1737038;81;21206;-89
2021/03/11 01:06:37;;;;;;;14.75;6.55;;;;;;;-6.54;97.25;101938.28;1736686;82;21583;-89
2021/03/11 01:09:09;;;;;;;15.15;8.15;;;;;;;-6.55;97.37;101930.23;1737898;82;21374;-89
2021/03/11 01:11:38;;;;;;;15.28;7.40;;;;;;;-6.56;97.48;101932.33;1736982;81;21426;-89
2021/03/11 01:18:30;;;;;;;10.63;6.25;;;;;;;-6.60;97.71;101922.95;1732310;82;21559;-86
2021/03/11 01:25:02;;;;;;;11.95;6.30;;;;;;;-6.60;98.44;101917.48;1762563;81;21243;-85
2021/03/11 01:31:53;;;;;;;10.05;5.85;;;;;;;-6.60;99.10;101928.02;1762650;81;21143;-85
2021/03/11 01:38:45;;;;;;;8.25;4.95;;;;;;;-6.67;99.62;101922.86;1762620;81;21583;-85
2021/03/11 01:45:36;;;;;;;11.05;6.03;;;;;;;-6.67;100.00;101938.48;1762491;81;21152;-85
2021/03/11 01:52:30;;;;;;;17.07;9.00;;;;;;;-6.69;100.00;101936.33;1732266;82;21025;-85
2021/03/11 01:59:13;;;;;;;18.17;8.98;;;;;;;-6.82;99.56;101938.66;1732389;82;21584;-85
2021/03/11 02:06:05;;;;;;;14.63;7.78;;;;;;;-6.90;99.75;101946.53;1736455;81;21611;-85
2021/03/11 02:16:26;;;;;;;15.32;7.45;;;;;;;-7.04;100.00;101955.13;1722658;82;21835;-85
2021/03/11 02:27:52;;;;;;;14.10;7.30;;;;;;;-7.08;100.00;101962.20;1753777;81;21463;-85
2021/03/11 02:38:46;;;;;;;18.05;7.90;;;;;;;-7.16;100.00;101973.86;1753991;79;21187;-85
2021/03/11 02:49:31;;;;;;;18.92;8.58;;;;;;;-7.13;100.00;101960.84;1740620;82;21167;-85
2021/03/11 02:56:24;;;;;;;19.00;9.03;;;;;;;-7.09;100.00;101969.35;1807575;79;21124;-86
2021/03/11 03:03:16;;;;;;;17.75;9.33;;;;;;;-7.15;100.00;101968.84;1807945;79;21610;-86
2021/03/11 03:10:11;;;;;;;15.28;7.90;;;;;;;-7.22;100.00;101966.14;1807935;79;21100;-86
2021/03/11 03:17:03;;;;;;;18.42;8.13;;;;;;;-7.24;100.00;101966.13;1807844;79;21153;-85
2021/03/11 03:23:58;;;;;;;12.68;6.17;;;;;;;-7.18;100.00;101964.13;1807942;79;21129;-85
2021/03/11 03:30:31;;;;;;;12.88;6.53;;;;;;;-7.17;100.00;101966.69;1807843;79;21120;-85
2021/03/11 03:37:22;;;;;;;12.37;6.75;;;;;;;-7.14;100.00;101969.30;1829429;78;21158;-85
2021/03/11 03:44:17;;;;;;;19.65;8.33;;;;;;;-7.11;100.00;101966.36;1796544;79;21177;-86
2021/03/11 03:51:10;;;;;;;12.55;7.15;;;;;;;-7.08;100.00;101968.95;1771160;80;21160;-85
2021/03/11 03:58:03;;;;;;;12.93;7.42;;;;;;;-7.07;100.00;101976.58;1771096;81;21147;-85
2021/03/11 04:04:55;;;;;;;12.88;6.87;;;;;;;-7.11;100.00;101987.48;1771010;81;21107;-86
2021/03/11 04:11:47;;;;;;;19.55;9.83;;;;;;;-7.13;100.00;101991.66;1770626;78;21100;-86
2021/03/11 04:23:03;;;;;;;31.52;11.35;;;;;;;-7.23;100.00;101994.42;1771204;80;21107;-86
2021/03/11 04:29:37;;;;;;;30.12;12.07;;;;;;;-7.26;100.00;102000.67;1770311;80;21560;-85
2021/03/11 04:36:30;;;;;;;25.48;11.05;;;;;;;-7.22;100.00;102000.33;1775779;80;21060;-87
2021/03/11 04:38:58;;;;;;;20.52;9.90;;;;;;;-7.26;100.00;102015.86;1770381;81;21081;-83
2021/03/11 04:41:27;;;;;;;19.12;10.63;;;;;;;-7.31;100.00;102017.03;1785713;78;21070;-83
2021/03/11 04:44:00;;;;;;;23.40;9.85;;;;;;;-7.36;100.00;102019.87;1825660;78;21074;-87
2021/03/11 04:46:29;;;;;;;16.32;8.48;;;;;;;-7.38;100.00;102018.98;1822436;77;21431;-87
2021/03/11 04:49:01;;;;;;;21.75;9.88;;;;;;;-7.36;100.00;102023.67;1808756;78;21922;-87
2021/03/11 04:51:30;;;;;;;22.05;11.43;;;;;;;-7.32;100.00;102031.77;1793687;79;21176;-88
2021/03/11 04:54:00;;;;;;;17.12;8.93;;;;;;;-7.31;100.00;102024.62;1797196;79;21110;-88
2021/03/11 04:56:30;;;;;;;24.65;11.35;;;;;;;-7.20;100.00;102026.53;1813156;78;21614;-87
2021/03/11 04:58:58;;;;;;;22.45;12.00;;;;;;;-6.92;100.00;102025.81;1816613;78;21047;-88
2021/03/11 05:01:31;;;;;;;23.00;11.70;;;;;;;-6.60;100.00;102028.12;1812849;77;21200;-87
2021/03/11 05:04:02;;;;;;;23.00;12.58;;;;;;;-6.42;100.00;102024.66;1808674;78;21085;-87
2021/03/11 05:06:30;;;;;;;19.62;10.48;;;;;;;-6.38;100.00;102022.64;1808355;77;21160;-87
2021/03/11 05:08:58;;;;;;;18.42;10.53;;;;;;;-6.38;100.00;102025.57;1804380;77;21525;-87
2021/03/11 05:11:27;;;;;;;20.85;9.60;;;;;;;-6.39;100.00;102029.80;1808101;77;21529;-87
2021/03/11 05:13:56;;;;;;;16.45;9.78;;;;;;;-6.37;100.00;102035.73;1803716;78;21191;-86
2021/03/11 05:16:25;;;;;;;18.40;10.35;;;;;;;-6.33;100.00;102041.74;1795825;79;21121;-87
2021/03/11 05:19:00;;;;;;;15.90;9.45;;;;;;;-6.29;100.00;102043.91;1801427;78;21170;-87
2021/03/11 05:21:28;;;;;;;15.30;9.53;;;;;;;-6.26;100.00;102039.75;1828414;77;21534;-88
2021/03/11 05:23:58;;;;;;;23.83;10.35;;;;;;;-6.18;100.00;102041.13;1820373;77;21175;-87
2021/03/11 05:26:27;;;;;;;16.27;9.75;;;;;;;-6.03;100.00;102046.47;1817641;78;21331;-88
2021/03/11 05:28:56;;;;;;;22.15;12.58;;;;;;;-5.90;100.00;102046.22;1829009;78;21527;-88
2021/03/11 05:31:23;;;;;;;20.40;10.08;;;;;;;-5.65;100.00;102045.77;1806839;78;21121;-88
2021/03/11 05:33:52;;;;;;;19.10;9.85;;;;;;;-5.54;100.00;102035.34;1814605;78;21545;-89
2021/03/11 05:36:21;;;;;;;17.98;9.50;;;;;;;-5.43;100.00;102041.44;1818210;78;21180;-86
2021/03/11 05:38:50;;;;;;;21.48;10.15;;;;;;;-5.33;100.00;102040.30;1815288;77;21182;-86
2021/03/11 05:41:20;;;;;;;20.30;9.95;;;;;;;-5.30;100.00;102045.01;1810239;78;21549;-85
2021/03/11 05:44:17;;;;;;;26.37;9.48;;;;;;;-5.30;100.00;102037.79;1825432;77;21161;-86
2021/03/11 05:47:17;;;;;;;20.05;8.68;;;;;;;-5.22;100.00;102048.91;1806943;78;21125;-85
2021/03/11 05:50:13;;;;;;;18.67;9.58;;;;;;;-5.08;100.00;102051.63;1828777;77;21134;-86
2021/03/11 05:52:41;;;;;;;16.57;9.38;;;;;;;-4.90;100.00;102059.89;1828795;78;21186;-85
2021/03/11 05:55:09;;;;;;;23.75;10.58;;;;;;;-4.91;98.10;102054.38;1828548;78;21601;-85
2021/03/11 05:57:41;;;;;;;18.27;10.03;;;;;;;-4.91;100.00;102059.45;1825702;77;21214;-85
2021/03/11 06:00:13;;;;;;;23.70;10.18;;;;;;;-4.87;95.91;102065.03;1764023;80;21131;-86
2021/03/11 06:02:49;;;;;;;17.75;9.80;;;;;;;-4.88;97.61;102054.42;1798748;79;21160;-86
2021/03/11 06:05:21;;;;;;;24.07;9.83;;;;;;;-4.83;97.52;102060.84;1774296;80;22354;-86
2021/03/11 06:07:50;;;;;;;20.12;9.73;;;;;;;-4.76;99.57;102053.28;1798435;79;21481;-86
2021/03/11 06:10:21;;;;;;;20.37;10.23;;;;;;;-4.61;100.00;102053.89;1776069;79;21127;-85
2021/03/11 06:12:51;;;;;;;19.48;9.95;;;;;;;-4.48;100.00;102061.23;1751986;80;21606;-86
2021/03/11 06:15:31;;;;;;;16.32;9.15;;;;;;;-4.42;95.47;102057.04;1746731;81;21383;-86
2021/03/11 06:18:00;;;;;;;22.00;11.22;;;;;;;-4.35;98.88;102053.72;1740788;80;22293;-85
2021/03/11 06:20:28;;;;;;;22.00;11.93;;;;;;;-4.20;100.00;102055.56;1743590;81;21119;-86
2021/03/11 06:22:56;;;;;;;23.22;10.43;;;;;;;-4.08;99.35;102059.48;1758641;81;21128;-86
2021/03/11 06:25:25;;;;;;;27.73;11.10;;;;;;;-4.02;96.89;102056.15;1751795;81;21210;-86
2021/03/11 06:27:56;;;;;;;26.68;11.40;;;;;;;-3.94;98.87;102057.50;1738765;81;21226;-86
2021/03/11 06:30:36;;;;;;;24.30;10.75;;;;;;;-3.81;100.00;102062.71;1744594;81;21535;-86
2021/03/11 06:33:06;;;;;;;19.98;10.05;;;;;;;-3.76;93.55;102068.24;1745836;81;21163;-86
2021/03/11 06:35:37;;;;;;;24.27;11.12;;;;;;;-3.70;94.66;102065.73;1732889;82;21141;-86
2021/03/11 06:38:05;;;;;;;19.70;10.95;;;;;;;-3.61;94.61;102064.97;1757045;81;21128;-86
2021/03/11 06:40:34;;;;;;;18.55;9.63;;;;;;;-3.52;95.41;102070.97;1743179;81;21167;-85
2021/03/11 06:43:12;;;;;;;24.92;11.12;;;;;;;-3.45;93.22;102066.78;1749484;80;21367;-86
2021/03/11 06:45:41;;;;;;;24.07;11.30;;;;;;;-3.38;95.05;102074.02;1752301;81;21187;-86
2021/03/11 06:48:25;;;;;;;23.02;11.45;;;;;;;-3.31;89.87;102068.55;1746681;81;21171;-85
2021/03/11 06:50:59;;;;;;;21.55;10.72;;;;;;;-3.27;86.70;102070.27;1728740;83;21171;-85
2021/03/11 06:53:30;;;;;;;22.65;11.33;;;;;;;-3.26;87.08;102069.02;1725863;81;21119;-85
2021/03/11 06:56:19;;;;;;;23.18;11.70;;;;;;;-3.20;89.39;102075.42;1728708;81;21364;-85
2021/03/11 06:58:59;;;;;;;22.95;11.60;;;;;;;-3.12;90.58;102080.54;1728635;82;21166;-85
2021/03/11 07:01:34;;;;;;;22.30;12.05;;;;;;;-3.03;84.05;102091.22;1728554;81;21164;-86
2021/03/11 07:04:03;;;;;;;23.92;12.33;;;;;;;-3.06;79.85;102097.16;1739267;80;21214;-85
2021/03/11 07:06:35;;;;;;;26.17;11.95;;;;;;;-3.11;79.39;102093.72;1735642;81;21182;-85
2021/03/11 07:09:08;;;;;;;24.20;11.85;;;;;;;-3.06;83.01;102086.09;1728793;83;21162;-85
2021/03/11 07:11:53;;;;;;;22.55;11.75;;;;;;;-3.05;78.97;102091.23;1739098;81;21481;-85
2021/03/11 07:14:28;;;;;;;26.73;11.12;;;;;;;-3.04;80.59;102090.35;1740420;81;21132;-85
2021/03/11 07:17:20;;;;;;;24.37;11.80;;;;;;;-2.99;82.31;102089.11;1723708;83;21176;-85
2021/03/11 07:20:09;;;;;;;;;;;;;;;-2.90;79.57;102095.53;1726332;82;21218;-85
2021/03/11 07:22:39;;;;;;;22.62;10.75;;;;;;;-2.91;72.81;102095.09;1723871;82;21212;-85
2021/03/11 07:25:30;;;;;;;22.60;9.95;;;;;;;-2.97;73.48;102089.97;1724024;82;21139;-85
2021/03/11 07:28:00;;;;;;;19.60;9.95;;;;;;;-2.97;71.17;102098.89;1735639;81;21053;-83
2021/03/11 07:30:53;;;;;;;15.72;8.70;;;;;;;-2.94;72.90;102096.78;1778816;79;21078;-83
2021/03/11 07:33:25;;;;;;;19.42;8.80;;;;;;;-2.88;73.43;102086.20;1809191;79;21529;-83
2021/03/11 07:35:55;;;;;;;;;;;;;;;-2.81;70.95;102086.22;1811926;78;22110;-83
2021/03/11 07:38:26;;;;;;;17.35;9.20;;;;;;;-2.75;72.67;102084.96;1770516;79;20536;-83
2021/03/11 07:40:58;;;;;;;15.45;8.95;;;;;;;-2.65;70.03;102089.26;1756521;81;21571;-82
2021/03/11 07:43:30;;;;;;;17.30;9.18;;;;;;;-2.60;71.69;102087.56;1749394;81;21507;-83
2021/03/11 07:46:04;;;;;;;18.37;9.23;;;;;;;-2.50;73.04;102091.42;1755156;80;21112;-82
2021/03/11 07:48:39;;;;;;;11.70;7.75;;;;;;;-2.38;74.00;102087.65;1748832;81;21306;-83
2021/03/11 07:51:09;;;;;;;15.80;8.25;;;;;;;-2.29;70.84;102085.53;1743664;81;21107;-83
2021/03/11 07:53:41;;;;;;;13.35;7.78;;;;;;;-2.17;72.49;102083.02;1760744;81;21131;-83
2021/03/11 07:56:10;;;;;;;15.03;7.90;;;;;;;-2.10;63.98;102086.00;1739784;81;21107;-83
2021/03/11 07:58:44;;;;;;;14.90;7.97;;;;;;;-2.12;61.77;102088.10;1756654;81;21170;-83
2021/03/11 08:01:14;;;;;;;13.75;7.87;;;;;;;-2.19;60.66;102087.66;1767140;79;22072;-83
2021/03/11 08:03:49;;;;;;;13.35;8.05;;;;;;;-2.19;62.72;102086.39;1757560;81;21119;-83
2021/03/11 08:06:26;;;;;;;18.70;9.08;;;;;;;-2.13;62.07;102082.59;1731113;82;21060;-83
2021/03/11 08:08:56;;;;;;;13.68;7.17;;;;;;;-2.09;63.32;102076.63;1741831;80;21445;-83
2021/03/11 08:11:42;;;;;;;12.93;7.58;;;;;;;-2.03;64.28;102078.34;1740737;81;21143;-82
2021/03/11 08:14:22;;;;;;;14.68;7.28;;;;;;;-1.94;64.28;102079.63;1728056;81;21452;-84
2021/03/11 08:16:54;;;;;;;11.22;6.60;;;;;;;-1.84;62.19;102079.20;1731722;81;21919;-83
2021/03/11 08:19:40;;;;;;;13.35;7.60;;;;;;;-1.82;59.40;102076.23;1731579;82;21127;-83
2021/03/11 08:22:14;;;;;;;12.05;6.70;;;;;;;-1.83;59.67;102079.62;1731665;81;21579;-83
2021/03/11 08:24:45;;;;;;;11.90;6.25;;;;;;;-1.83;57.63;102074.08;1731770;82;21125;-83
2021/03/11 08:27:36;;;;;;;10.53;6.60;;;;;;;-1.88;58.61;102071.97;1731868;81;21551;-82
2021/03/11 08:30:06;;;;;;;12.37;6.25;;;;;;;-1.86;60.20;102070.68;1731915;82;21111;-83
2021/03/11 08:32:51;;;;;;;10.40;5.92;;;;;;;-1.79;58.15;102068.14;1736965;80;21239;-83
2021/03/11 08:35:30;;;;;;;12.78;6.08;;;;;;;-1.77;59.12;102071.96;1762035;81;21419;-83
2021/03/11 08:38:00;;;;;;;8.85;5.95;;;;;;;-1.70;59.82;102066.44;1743290;81;21143;-84
2021/03/11 08:40:39;;;;;;;14.65;6.92;;;;;;;-1.64;59.93;102060.87;1742463;81;22131;-83
2021/03/11 08:43:08;;;;;;;11.97;6.42;;;;;;;-1.54;57.11;102064.30;1770599;80;21178;-83
2021/03/11 08:45:42;;;;;;;10.03;5.70;;;;;;;-1.50;55.18;102065.14;1787765;77;21612;-83
2021/03/11 08:48:22;;;;;;;12.93;6.42;;;;;;;-1.44;58.87;102060.84;1845068;76;21566;-83
2021/03/11 08:50:54;;;;;;;10.85;6.40;;;;;;;-1.34;59.74;102061.70;1785501;80;21188;-83
2021/03/11 08:53:44;;;;;;;10.50;6.80;;;;;;;-1.25;57.49;102066.38;1801310;77;21184;-84
2021/03/11 08:56:31;;;;;;;10.88;5.65;;;;;;;-1.25;54.11;102064.65;1814684;78;21118;-83
2021/03/11 08:59:09;;;;;;;12.05;6.65;;;;;;;-1.21;56.22;102070.61;1809010;78;21589;-83
2021/03/11 09:01:52;;;;;;;12.07;6.55;;;;;;;-1.08;55.57;102064.59;1809001;79;21125;-83
2021/03/11 09:04:30;;;;;;;15.30;7.10;;;;;;;-0.96;57.31;102063.28;1813425;77;21114;-83
2021/03/11 09:07:28;;;;;;;11.63;5.87;;;;;;;-0.85;56.76;102063.69;1785935;78;21604;-82
2021/03/11 09:10:08;;;;;;;11.68;6.78;;;;;;;-0.80;55.42;102056.39;1782236;77;21106;-82
2021/03/11 09:12:38;;;;;;;12.55;6.70;;;;;;;-0.70;56.52;102065.30;1810929;77;21157;-84
2021/03/11 09:15:10;;;;;;;9.88;6.22;;;;;;;-0.61;52.60;102062.70;1809270;78;21152;-84
2021/03/11 09:17:39;;;;;;;;;;;;;;;-0.65;52.96;102055.47;1811819;79;21098;-84
2021/03/11 09:20:16;;;;;;;12.23;6.40;;;;;;;-0.59;55.03;102058.84;1798124;79;21242;-84
2021/03/11 09:22:51;;;;;;;11.28;6.37;;;;;;;-0.50;55.90;102061.36;1738077;80;21167;-84
2021/03/11 09:25:32;;;;;;;9.70;6.22;;;;;;;-0.36;57.39;102049.77;1746884;81;21186;-85
2021/03/11 09:28:02;;;;;;;13.78;7.03;;;;;;;-0.22;56.71;102049.23;1756833;81;21527;-82
2021/03/11 09:30:37;;;;;;;10.57;6.17;;;;;;;-0.11;52.61;102058.12;1765074;81;21150;-84
2021/03/11 09:33:37;;;;;;;10.30;6.33;;;;;;;-0.12;55.20;102058.97;1772079;80;22262;-84
2021/03/11 09:36:09;;;;;;;11.90;7.08;;;;;;;-0.03;55.42;102055.52;1761136;80;21074;-84
2021/03/11 09:38:41;;;;;;;12.23;6.50;;;;;;;0.06;53.83;102053.30;1736967;81;21115;-84
2021/03/11 09:41:38;;;;;;;14.75;7.37;;;;;;;0.13;55.56;102055.81;1747537;81;21131;-83
2021/03/11 09:44:08;;;;;;;14.55;7.70;;;;;;;0.11;53.44;102056.69;1800472;77;21122;-84
2021/03/11 09:46:37;;;;;;;14.53;8.83;;;;;;;-0.15;51.27;102051.33;1777431;80;21486;-83
2021/03/11 09:49:08;;;;;;;12.45;7.97;;;;;;;-0.44;51.49;102060.04;1777097;80;21133;-83
2021/03/11 09:51:44;;;;;;;11.95;7.70;;;;;;;-0.72;50.42;102054.25;1777316;80;21189;-83
2021/03/11 09:54:12;;;;;;;14.38;8.15;;;;;;;-0.98;51.38;102063.72;1800987;77;21089;-83
2021/03/11 09:56:44;;;;;;;12.68;7.33;;;;;;;-1.19;51.57;102058.68;1809316;79;21142;-83
2021/03/11 09:59:16;;;;;;;13.53;7.50;;;;;;;-1.32;51.78;102058.69;1802297;78;21458;-84
2021/03/11 10:02:15;;;;;;;9.23;5.70;;;;;;;-1.36;53.01;102057.02;1806403;78;21153;-83
2021/03/11 10:04:43;;;;;;;10.95;7.37;;;;;;;-1.26;55.93;102051.44;1792693;77;21530;-84
2021/03/11 10:07:14;;;;;;;10.72;6.92;;;;;;;-1.02;53.93;102055.64;1841432;77;37520;-84
2021/03/11 10:09:45;;;;;;;10.20;6.25;;;;;;;-0.81;55.42;102048.31;1847851;77;21134;-84
2021/03/11 10:12:45;;;;;;;9.70;6.70;;;;;;;-0.58;56.29;102040.95;1848005;77;21174;-84
2021/03/11 10:19:11;;;;;;;10.15;7.17;;;;;;;-0.08;54.32;102038.06;1842297;76;21131;-83
2021/03/11 10:22:04;;;;;;;10.88;7.70;;;;;;;0.15;55.75;102040.00;1842366;77;21568;-83
2021/03/11 10:24:50;;;;;;;13.40;7.95;;;;;;;0.27;51.95;102042.02;1840245;77;21554;-84
2021/03/11 10:27:51;;;;;;;13.00;8.28;;;;;;;0.14;51.29;102038.72;1834649;77;21862;-83
2021/03/11 10:30:24;;;;;;;12.15;7.72;;;;;;;-0.07;49.91;102044.86;1817637;77;21181;-83
2021/03/11 10:33:22;;;;;;;15.10;8.80;;;;;;;-0.35;50.97;102044.63;1806754;78;21121;-84
2021/03/11 10:35:50;;;;;;;12.90;7.42;;;;;;;-0.44;52.41;102037.45;1797316;78;21472;-84
2021/03/11 10:38:29;;;;;;;11.70;7.15;;;;;;;-0.26;54.90;102023.25;1807594;78;21126;-83
2021/03/11 10:41:16;;;;;;;15.35;8.65;;;;;;;0.03;52.78;102022.61;1807034;77;21433;-84
2021/03/11 10:44:17;;;;;;;13.35;8.08;;;;;;;0.12;49.13;102028.94;1835537;77;21066;-84
2021/03/11 10:46:46;;;;;;;13.78;8.55;;;;;;;-0.03;50.26;102031.19;1825475;77;21499;-84
2021/03/11 10:49:38;;;;;;;15.38;9.00;;;;;;;-0.18;49.80;102023.17;1839129;77;21129;-83
2021/03/11 10:52:16;;;;;;;15.30;8.88;;;;;;;-0.36;51.85;102021.16;1821702;77;21237;-82
2021/03/11 10:59:10;;;;;;;12.13;8.65;;;;;;;-0.61;52.08;102026.05;1802648;78;21082;-84
2021/03/11 11:02:12;;;;;;;;;;;;;;;-0.82;54.01;102016.33;1828779;78;21118;-83
2021/03/11 11:09:04;;;;;;;16.23;9.18;;;;;;;-0.54;55.37;102012.34;1796565;79;21133;-83
2021/03/11 11:20:00;;;;;;;12.07;7.15;;;;;;;-0.61;55.25;101996.62;1800132;79;21102;-83
2021/03/11 11:26:56;;;;;;;12.33;7.97;;;;;;;-0.51;58.38;101993.12;1788283;80;21530;-84
2021/03/11 11:33:48;;;;;;;14.33;7.97;;;;;;;-0.46;54.61;101987.97;1798148;77;21154;-83
2021/03/11 11:48:17;;;;;;;13.58;8.43;;;;;;;-0.33;53.52;101986.59;1887350;76;22370;-86
2021/03/11 11:50:53;;;;;;;11.20;8.35;;;;;;;-0.45;53.31;101989.67;1841867;77;21452;-87
2021/03/11 11:53:22;;;;;;;10.95;8.00;;;;;;;-0.62;52.48;101977.84;1844786;77;21464;-87
2021/03/11 11:55:50;;;;;;;13.18;8.13;;;;;;;-0.74;54.19;101977.48;1816604;77;22104;-86
2021/03/11 11:58:19;;;;;;;9.70;7.28;;;;;;;-0.80;55.24;101988.59;1804783;79;21171;-87
2021/03/11 12:00:47;;;;;;;11.70;8.45;;;;;;;-0.84;55.58;101968.19;1842319;77;21610;-87
2021/03/11 12:03:15;;;;;;;10.58;7.92;;;;;;;-0.83;54.83;101982.24;1841125;77;21115;-86
2021/03/11 12:05:44;;;;;;;13.20;8.25;;;;;;;-0.87;55.46;101981.82;1818954;78;21143;-87
2021/03/11 12:08:11;;;;;;;10.40;7.72;;;;;;;-0.89;56.24;101991.23;1796693;77;21096;-88
2021/03/11 12:10:40;;;;;;;13.45;7.95;;;;;;;-0.91;55.68;101984.40;1833303;77;21143;-88
2021/03/11 12:13:09;;;;;;;14.38;8.93;;;;;;;-0.99;54.68;101989.57;1822611;77;21112;-88
2021/03/11 12:15:37;;;;;;;16.23;9.10;;;;;;;-1.10;54.92;101984.52;1828788;77;21215;-88
2021/03/11 12:18:06;;;;;;;12.13;8.05;;;;;;;-1.14;55.99;101990.06;1815212;79;21158;-88
2021/03/11 12:20:36;;;;;;;10.50;7.45;;;;;;;-1.10;56.98;101994.73;1815196;77;21532;-88
2021/03/11 12:23:05;;;;;;;12.85;8.65;;;;;;;-1.06;56.14;101985.34;1815288;79;21419;-88
2021/03/11 12:25:36;;;;;;;13.62;8.60;;;;;;;-1.04;56.98;101988.31;1834005;77;21127;-88
2021/03/11 12:28:05;;;;;;;13.22;8.40;;;;;;;-1.04;56.51;101985.75;1848616;77;21131;-88
2021/03/11 12:30:33;;;;;;;12.82;8.30;;;;;;;-1.09;56.39;101982.37;1848546;77;21189;-88
2021/03/11 12:33:02;;;;;;;13.83;8.53;;;;;;;-1.09;56.85;101981.10;1848462;77;21139;-87
2021/03/11 12:35:31;;;;;;;14.93;8.98;;;;;;;-1.06;57.31;101982.34;1848560;77;21135;-88
2021/03/11 12:37:59;;;;;;;13.85;9.10;;;;;;;-1.13;54.49;101988.34;1848050;77;21139;-88
2021/03/11 12:40:27;;;;;;;15.08;9.58;;;;;;;-1.32;55.55;101992.23;1820348;77;21179;-87
2021/03/11 12:42:55;;;;;;;14.18;8.60;;;;;;;-1.38;58.66;101996.10;1821698;77;21364;-88
2021/03/11 12:45:24;;;;;;;12.33;8.60;;;;;;;-1.38;59.66;101994.83;1820051;77;21151;-88
2021/03/11 12:47:53;;;;;;;13.08;8.98;;;;;;;-1.39;58.83;101990.56;1820162;77;21152;-88
2021/03/11 12:50:21;;;;;;;12.25;8.10;;;;;;;-1.44;58.99;101988.02;1817691;77;21166;-88
2021/03/11 12:52:50;;;;;;;13.03;8.35;;;;;;;-1.43;60.57;101986.33;1837217;77;21163;-88
2021/03/11 12:55:18;;;;;;;13.00;8.13;;;;;;;-1.37;59.08;101985.47;1829127;77;22134;-88
2021/03/11 12:57:47;;;;;;;13.08;8.80;;;;;;;-1.39;57.14;101984.17;1824176;77;21190;-88
2021/03/11 13:00:17;;;;;;;12.23;7.95;;;;;;;-1.43;60.04;101990.16;1819364;77;21152;-87
2021/03/11 13:02:47;;;;;;;15.58;8.38;;;;;;;-1.50;57.37;101993.16;1801209;77;21097;-88
2021/03/11 13:05:15;;;;;;;11.00;8.63;;;;;;;-1.67;58.27;101993.20;1817274;78;21143;-88
2021/03/11 13:07:45;;;;;;;12.23;7.40;;;;;;;-1.80;59.04;101997.89;1832093;77;21131;-88
2021/03/11 13:10:13;;;;;;;12.98;8.50;;;;;;;-1.86;59.18;101995.34;1847873;77;21206;-88
2021/03/11 13:12:43;;;;;;;14.58;8.43;;;;;;;-1.90;58.54;101998.33;1848358;77;21123;-88
2021/03/11 13:15:14;;;;;;;14.43;8.78;;;;;;;-1.87;60.19;102001.30;1832281;77;21171;-89
2021/03/11 13:17:42;;;;;;;15.20;8.90;;;;;;;-1.83;62.06;101994.92;1797411;79;21132;-88
2021/03/11 13:20:11;;;;;;;14.70;8.40;;;;;;;-1.75;61.93;101991.09;1828856;77;21281;-87
2021/03/11 13:23:00;;;;;;;13.32;8.78;;;;;;;-1.70;63.06;101986.81;1840070;77;21571;-86
2021/03/11 13:29:52;;;;;;;15.40;8.80;;;;;;;-1.65;59.16;101982.56;1849077;77;21111;-86
2021/03/11 13:36:43;;;;;;;12.85;8.13;;;;;;;-1.75;59.69;101993.64;1832920;77;21579;-87
2021/03/11 13:43:35;;;;;;;23.07;13.32;;;;;;;-2.24;61.60;102006.86;1849139;77;21131;-86
2021/03/11 13:49:53;;;;;;;17.37;9.53;;;;;;;-2.46;60.22;101998.77;1832146;77;21120;-86
2021/03/11 13:52:55;;;;;;;14.98;10.13;;;;;;;-2.51;60.69;101995.33;1837174;77;22346;-86
2021/03/11 13:59:47;;;;;;;19.95;10.03;;;;;;;-2.46;63.29;101997.48;1816325;77;21156;-86
2021/03/11 14:06:38;;;;;;;17.02;8.23;;;;;;;-2.33;60.55;102000.47;1811011;77;21143;-86
2021/03/11 14:13:30;;;;;;;17.02;10.68;;;;;;;-2.54;58.01;102003.84;1834639;77;21184;-86
2021/03/11 14:20:21;;;;;;;18.42;10.35;;;;;;;-2.63;61.44;102001.27;1834774;77;21894;-86
2021/03/11 14:22:49;;;;;;;18.67;11.12;;;;;;;-2.79;64.13;102002.50;1824582;77;21143;-87
2021/03/11 14:25:18;;;;;;;15.60;11.10;;;;;;;-2.85;64.93;102007.59;1837817;77;21920;-88
2021/03/11 14:27:46;;;;;;;15.05;10.10;;;;;;;-2.90;66.25;102014.38;1827338;77;21163;-90
2021/03/11 14:30:18;;;;;;;16.65;9.70;;;;;;;-2.91;65.29;102009.69;1776123;79;21181;-87
2021/03/11 14:32:46;;;;;;;18.82;10.72;;;;;;;-2.90;62.46;102004.19;1818673;77;21175;-88
2021/03/11 14:35:16;;;;;;;15.32;9.08;;;;;;;-2.92;62.07;102010.53;1799187;79;21124;-89
2021/03/11 14:37:44;;;;;;;15.85;9.85;;;;;;;-2.98;62.27;102002.03;1841657;77;21456;-89
2021/03/11 14:40:13;;;;;;;16.95;10.30;;;;;;;-3.03;63.05;102009.66;1793814;79;21116;-89
2021/03/11 14:42:41;;;;;;;17.10;11.18;;;;;;;-3.09;61.68;102005.81;1822249;77;21111;-89
2021/03/11 14:45:10;;;;;;;16.97;10.85;;;;;;;-3.18;62.26;101997.70;1808399;77;21147;-90
2021/03/11 14:47:38;;;;;;;16.25;10.43;;;;;;;-3.18;63.87;101998.97;1826963;77;21171;-89
2021/03/11 14:50:08;;;;;;;21.50;10.90;;;;;;;-3.19;65.88;101998.12;1836988;77;21361;-88
2021/03/11 14:52:36;;;;;;;19.35;11.78;;;;;;;-3.21;66.86;102010.44;1834898;77;21218;-88
2021/03/11 14:55:05;;;;;;;20.23;11.55;;;;;;;-3.25;66.56;102008.70;1818297;77;21178;-86
2021/03/11 14:57:35;;;;;;;15.78;10.88;;;;;;;-3.30;65.93;102011.23;1829154;77;21547;-87
2021/03/11 15:00:04;;;;;;;17.75;10.38;;;;;;;-3.35;64.06;102005.27;1842166;77;21203;-89
2021/03/11 15:02:32;;;;;;;16.82;10.28;;;;;;;-3.41;64.01;102006.52;1842193;77;21238;-89
2021/03/11 15:05:04;;;;;;;15.45;10.13;;;;;;;-3.45;67.30;102003.51;1842169;77;21564;-89
2021/03/11 15:07:32;;;;;;;20.32;12.25;;;;;;;-3.51;69.81;102005.59;1842486;77;21100;-89
2021/03/11 15:10:00;;;;;;;16.07;10.32;;;;;;;-3.53;73.15;102003.05;1842340;77;21163;-90
2021/03/11 15:29:42;;;;;;;19.77;10.40;;;;;;;-3.85;69.55;102016.42;1817727;77;21416;-85
2021/03/11 15:36:34;;;;;;;21.40;10.28;;;;;;;-4.01;72.79;102019.69;1793300;79;21151;-85